sensor_id;sensor_type;location;lat;lon;timestamp;P1;durP1;ratioP1;P2;durP2;ratioP2
56319;SDS011;42226;42.382;23.748;2022-11-15T00:01:08;57.65;;;28.42;;
56319;SDS011;42226;42.382;23.748;2022-11-15T00:03:46;58.08;;;28.52;;
56319;SDS011;42226;42.382;23.748;2022-11-15T00:06:17;57.10;;;28.30;;
56319;SDS011;42226;42.382;23.748;2022-11-15T00:08:46;58.88;;;29.00;;
56319;SDS011;42226;42.382;23.748;2022-11-15T00:11:13;50.35;;;27.45;;
56319;SDS011;42226;42.382;23.748;2022-11-15T00:13:39;73.70;;;30.27;;
56319;SDS011;42226;42.382;23.748;2022-11-15T00:16:09;57.25;;;29.98;;
56319;SDS011;42226;42.382;23.748;2022-11-15T00:18:37;94.22;;;34.25;;
56319;SDS011;42226;42.382;23.748;2022-11-15T00:21:06;110.35;;;32.47;;
56319;SDS011;42226;42.382;23.748;2022-11-15T00:23:38;96.25;;;33.40;;
56319;SDS011;42226;42.382;23.748;2022-11-15T00:26:07;72.50;;;29.95;;
56319;SDS011;42226;42.382;23.748;2022-11-15T00:28:38;161.10;;;35.05;;
56319;SDS011;42226;42.382;23.748;2022-11-15T00:31:07;206.60;;;37.85;;
56319;SDS011;42226;42.382;23.748;2022-11-15T00:33:42;429.27;;;45.00;;
56319;SDS011;42226;42.382;23.748;2022-11-15T00:36:10;487.92;;;47.97;;
56319;SDS011;42226;42.382;23.748;2022-11-15T00:38:38;486.05;;;50.05;;
56319;SDS011;42226;42.382;23.748;2022-11-15T00:41:06;400.73;;;42.20;;
56319;SDS011;42226;42.382;23.748;2022-11-15T00:43:34;141.88;;;34.55;;
56319;SDS011;42226;42.382;23.748;2022-11-15T00:46:02;188.02;;;33.67;;
56319;SDS011;42226;42.382;23.748;2022-11-15T00:48:29;233.13;;;32.58;;
56319;SDS011;42226;42.382;23.748;2022-11-15T00:50:57;248.55;;;33.28;;
56319;SDS011;42226;42.382;23.748;2022-11-15T00:53:24;254.50;;;31.27;;
56319;SDS011;42226;42.382;23.748;2022-11-15T00:55:52;258.55;;;32.42;;
56319;SDS011;42226;42.382;23.748;2022-11-15T00:58:19;221.15;;;29.40;;
56319;SDS011;42226;42.382;23.748;2022-11-15T01:00:46;196.95;;;28.33;;
56319;SDS011;42226;42.382;23.748;2022-11-15T01:03:14;184.20;;;28.65;;
56319;SDS011;42226;42.382;23.748;2022-11-15T01:05:42;294.95;;;32.20;;
56319;SDS011;42226;42.382;23.748;2022-11-15T01:08:13;224.00;;;28.10;;
56319;SDS011;42226;42.382;23.748;2022-11-15T01:10:42;265.83;;;29.35;;
56319;SDS011;42226;42.382;23.748;2022-11-15T01:13:10;491.75;;;38.47;;
56319;SDS011;42226;42.382;23.748;2022-11-15T01:15:40;469.77;;;38.65;;
56319;SDS011;42226;42.382;23.748;2022-11-15T01:18:08;329.67;;;32.00;;
56319;SDS011;42226;42.382;23.748;2022-11-15T01:20:40;444.33;;;36.72;;
56319;SDS011;42226;42.382;23.748;2022-11-15T01:23:09;114.47;;;25.08;;
56319;SDS011;42226;42.382;23.748;2022-11-15T01:25:36;358.77;;;32.30;;
56319;SDS011;42226;42.382;23.748;2022-11-15T01:28:04;297.83;;;28.65;;
56319;SDS011;42226;42.382;23.748;2022-11-15T01:30:33;316.42;;;33.38;;
56319;SDS011;42226;42.382;23.748;2022-11-15T01:33:02;290.02;;;28.60;;
56319;SDS011;42226;42.382;23.748;2022-11-15T01:35:28;274.55;;;28.45;;
56319;SDS011;42226;42.382;23.748;2022-11-15T01:37:56;387.20;;;33.20;;
56319;SDS011;42226;42.382;23.748;2022-11-15T01:40:23;345.02;;;32.28;;
56319;SDS011;42226;42.382;23.748;2022-11-15T01:42:50;357.08;;;32.15;;
56319;SDS011;42226;42.382;23.748;2022-11-15T01:45:18;158.68;;;25.83;;
56319;SDS011;42226;42.382;23.748;2022-11-15T01:47:47;298.08;;;28.58;;
56319;SDS011;42226;42.382;23.748;2022-11-15T01:50:19;349.23;;;34.30;;
56319;SDS011;42226;42.382;23.748;2022-11-15T01:52:54;264.15;;;25.63;;
56319;SDS011;42226;42.382;23.748;2022-11-15T01:55:24;201.13;;;24.52;;
56319;SDS011;42226;42.382;23.748;2022-11-15T01:57:58;353.63;;;32.22;;
56319;SDS011;42226;42.382;23.748;2022-11-15T02:00:29;272.60;;;27.45;;
56319;SDS011;42226;42.382;23.748;2022-11-15T02:02:57;242.20;;;26.08;;
56319;SDS011;42226;42.382;23.748;2022-11-15T02:05:24;441.50;;;35.95;;
56319;SDS011;42226;42.382;23.748;2022-11-15T02:07:53;331.65;;;31.33;;
56319;SDS011;42226;42.382;23.748;2022-11-15T02:10:21;153.85;;;23.50;;
56319;SDS011;42226;42.382;23.748;2022-11-15T02:12:51;267.73;;;27.52;;
56319;SDS011;42226;42.382;23.748;2022-11-15T02:15:20;269.50;;;28.40;;
56319;SDS011;42226;42.382;23.748;2022-11-15T02:18:03;198.77;;;24.98;;
56319;SDS011;42226;42.382;23.748;2022-11-15T02:21:25;255.07;;;27.35;;
56319;SDS011;42226;42.382;23.748;2022-11-15T02:36:05;116.32;;;22.15;;
56319;SDS011;42226;42.382;23.748;2022-11-15T02:44:24;106.07;;;18.30;;
56319;SDS011;42226;42.382;23.748;2022-11-15T02:47:02;108.28;;;20.92;;
56319;SDS011;42226;42.382;23.748;2022-11-15T02:49:50;254.88;;;24.55;;
56319;SDS011;42226;42.382;23.748;2022-11-15T02:52:21;291.38;;;26.27;;
56319;SDS011;42226;42.382;23.748;2022-11-15T02:55:02;145.55;;;21.50;;
56319;SDS011;42226;42.382;23.748;2022-11-15T02:57:39;280.88;;;26.13;;
56319;SDS011;42226;42.382;23.748;2022-11-15T03:00:47;236.02;;;22.83;;
56319;SDS011;42226;42.382;23.748;2022-11-15T03:03:30;224.45;;;23.17;;
56319;SDS011;42226;42.382;23.748;2022-11-15T03:06:47;119.13;;;18.85;;
56319;SDS011;42226;42.382;23.748;2022-11-15T03:15:37;139.20;;;17.55;;
56319;SDS011;42226;42.382;23.748;2022-11-15T03:18:21;30.35;;;15.65;;
56319;SDS011;42226;42.382;23.748;2022-11-15T03:21:00;116.57;;;17.73;;
56319;SDS011;42226;42.382;23.748;2022-11-15T03:23:32;112.57;;;18.95;;
56319;SDS011;42226;42.382;23.748;2022-11-15T03:26:03;85.70;;;16.25;;
56319;SDS011;42226;42.382;23.748;2022-11-15T03:28:39;69.13;;;15.70;;
56319;SDS011;42226;42.382;23.748;2022-11-15T03:31:30;134.68;;;18.15;;
56319;SDS011;42226;42.382;23.748;2022-11-15T03:34:26;58.35;;;16.52;;
56319;SDS011;42226;42.382;23.748;2022-11-15T03:37:10;40.92;;;15.90;;
56319;SDS011;42226;42.382;23.748;2022-11-15T03:39:40;112.40;;;16.67;;
56319;SDS011;42226;42.382;23.748;2022-11-15T03:47:45;69.60;;;17.67;;
56319;SDS011;42226;42.382;23.748;2022-11-15T03:50:23;40.90;;;15.68;;
56319;SDS011;42226;42.382;23.748;2022-11-15T03:52:51;59.25;;;17.60;;
56319;SDS011;42226;42.382;23.748;2022-11-15T03:55:22;87.32;;;16.67;;
56319;SDS011;42226;42.382;23.748;2022-11-15T03:57:50;51.90;;;15.65;;
56319;SDS011;42226;42.382;23.748;2022-11-15T04:00:19;66.70;;;16.88;;
56319;SDS011;42226;42.382;23.748;2022-11-15T04:02:46;47.05;;;17.10;;
56319;SDS011;42226;42.382;23.748;2022-11-15T04:05:14;42.88;;;16.33;;
56319;SDS011;42226;42.382;23.748;2022-11-15T04:07:41;62.83;;;17.48;;
56319;SDS011;42226;42.382;23.748;2022-11-15T04:10:10;53.15;;;16.52;;
56319;SDS011;42226;42.382;23.748;2022-11-15T04:12:39;51.85;;;17.40;;
56319;SDS011;42226;42.382;23.748;2022-11-15T04:15:10;41.22;;;15.90;;
56319;SDS011;42226;42.382;23.748;2022-11-15T04:17:49;57.83;;;15.90;;
56319;SDS011;42226;42.382;23.748;2022-11-15T04:20:26;52.47;;;16.00;;
56319;SDS011;42226;42.382;23.748;2022-11-15T04:23:15;38.08;;;15.43;;
56319;SDS011;42226;42.382;23.748;2022-11-15T04:26:23;53.05;;;15.43;;
56319;SDS011;42226;42.382;23.748;2022-11-15T04:28:50;60.58;;;15.05;;
56319;SDS011;42226;42.382;23.748;2022-11-15T04:31:35;55.15;;;14.25;;
56319;SDS011;42226;42.382;23.748;2022-11-15T04:34:02;44.30;;;14.80;;
56319;SDS011;42226;42.382;23.748;2022-11-15T04:36:29;51.78;;;14.70;;
56319;SDS011;42226;42.382;23.748;2022-11-15T04:39:14;50.70;;;14.77;;
56319;SDS011;42226;42.382;23.748;2022-11-15T04:41:42;52.33;;;14.23;;
56319;SDS011;42226;42.382;23.748;2022-11-15T04:44:10;40.55;;;13.80;;
56319;SDS011;42226;42.382;23.748;2022-11-15T04:46:37;57.53;;;13.43;;
56319;SDS011;42226;42.382;23.748;2022-11-15T04:49:04;31.48;;;12.93;;
56319;SDS011;42226;42.382;23.748;2022-11-15T04:51:32;37.80;;;12.73;;
56319;SDS011;42226;42.382;23.748;2022-11-15T04:53:59;49.72;;;13.00;;
56319;SDS011;42226;42.382;23.748;2022-11-15T04:56:27;39.75;;;13.07;;
56319;SDS011;42226;42.382;23.748;2022-11-15T04:58:53;33.55;;;12.43;;
56319;SDS011;42226;42.382;23.748;2022-11-15T05:01:21;28.05;;;12.50;;
56319;SDS011;42226;42.382;23.748;2022-11-15T05:03:48;45.97;;;13.55;;
56319;SDS011;42226;42.382;23.748;2022-11-15T05:06:33;33.83;;;12.40;;
56319;SDS011;42226;42.382;23.748;2022-11-15T05:09:00;38.05;;;13.63;;
56319;SDS011;42226;42.382;23.748;2022-11-15T05:11:27;45.83;;;12.93;;
56319;SDS011;42226;42.382;23.748;2022-11-15T05:13:54;31.23;;;13.55;;
56319;SDS011;42226;42.382;23.748;2022-11-15T05:16:21;42.25;;;12.65;;
56319;SDS011;42226;42.382;23.748;2022-11-15T05:18:51;30.73;;;12.70;;
56319;SDS011;42226;42.382;23.748;2022-11-15T05:21:20;35.65;;;13.98;;
56319;SDS011;42226;42.382;23.748;2022-11-15T05:23:47;48.53;;;13.43;;
56319;SDS011;42226;42.382;23.748;2022-11-15T05:26:15;35.47;;;12.30;;
56319;SDS011;42226;42.382;23.748;2022-11-15T05:28:44;41.92;;;13.35;;
56319;SDS011;42226;42.382;23.748;2022-11-15T05:31:17;56.35;;;12.77;;
56319;SDS011;42226;42.382;23.748;2022-11-15T05:33:45;29.63;;;12.15;;
56319;SDS011;42226;42.382;23.748;2022-11-15T05:39:12;26.80;;;11.18;;
56319;SDS011;42226;42.382;23.748;2022-11-15T05:41:41;40.15;;;11.48;;
56319;SDS011;42226;42.382;23.748;2022-11-15T05:44:16;32.75;;;11.77;;
56319;SDS011;42226;42.382;23.748;2022-11-15T05:46:46;40.58;;;12.38;;
56319;SDS011;42226;42.382;23.748;2022-11-15T05:49:14;35.58;;;11.88;;
56319;SDS011;42226;42.382;23.748;2022-11-15T05:51:47;35.70;;;10.82;;
56319;SDS011;42226;42.382;23.748;2022-11-15T05:54:15;30.58;;;11.93;;
56319;SDS011;42226;42.382;23.748;2022-11-15T05:56:43;34.63;;;12.05;;
56319;SDS011;42226;42.382;23.748;2022-11-15T05:59:10;24.88;;;10.88;;
56319;SDS011;42226;42.382;23.748;2022-11-15T06:01:38;28.65;;;10.65;;
56319;SDS011;42226;42.382;23.748;2022-11-15T06:04:05;36.60;;;10.98;;
56319;SDS011;42226;42.382;23.748;2022-11-15T06:06:32;47.13;;;10.80;;
56319;SDS011;42226;42.382;23.748;2022-11-15T06:09:00;67.07;;;12.05;;
56319;SDS011;42226;42.382;23.748;2022-11-15T06:11:27;55.20;;;11.05;;
56319;SDS011;42226;42.382;23.748;2022-11-15T06:13:54;36.17;;;10.45;;
56319;SDS011;42226;42.382;23.748;2022-11-15T06:16:23;56.83;;;11.55;;
56319;SDS011;42226;42.382;23.748;2022-11-15T06:18:50;28.10;;;10.13;;
56319;SDS011;42226;42.382;23.748;2022-11-15T06:21:16;36.45;;;11.48;;
56319;SDS011;42226;42.382;23.748;2022-11-15T06:23:44;33.35;;;11.30;;
56319;SDS011;42226;42.382;23.748;2022-11-15T06:26:10;30.13;;;10.98;;
56319;SDS011;42226;42.382;23.748;2022-11-15T06:28:37;24.20;;;10.38;;
56319;SDS011;42226;42.382;23.748;2022-11-15T06:31:06;52.78;;;11.07;;
56319;SDS011;42226;42.382;23.748;2022-11-15T06:33:35;133.48;;;14.02;;
56319;SDS011;42226;42.382;23.748;2022-11-15T06:36:03;35.25;;;11.32;;
56319;SDS011;42226;42.382;23.748;2022-11-15T06:38:36;34.13;;;10.98;;
56319;SDS011;42226;42.382;23.748;2022-11-15T06:41:04;54.78;;;12.23;;
56319;SDS011;42226;42.382;23.748;2022-11-15T06:43:36;52.80;;;12.90;;
56319;SDS011;42226;42.382;23.748;2022-11-15T06:46:05;56.55;;;11.50;;
56319;SDS011;42226;42.382;23.748;2022-11-15T06:48:32;141.45;;;15.77;;
56319;SDS011;42226;42.382;23.748;2022-11-15T06:51:01;39.80;;;11.02;;
56319;SDS011;42226;42.382;23.748;2022-11-15T06:53:29;53.53;;;11.75;;
56319;SDS011;42226;42.382;23.748;2022-11-15T06:56:01;37.67;;;11.13;;
56319;SDS011;42226;42.382;23.748;2022-11-15T06:58:33;24.35;;;11.02;;
56319;SDS011;42226;42.382;23.748;2022-11-15T07:01:02;87.97;;;14.13;;
56319;SDS011;42226;42.382;23.748;2022-11-15T07:03:33;47.35;;;11.77;;
56319;SDS011;42226;42.382;23.748;2022-11-15T07:06:03;64.82;;;11.60;;
56319;SDS011;42226;42.382;23.748;2022-11-15T07:08:31;87.10;;;12.02;;
56319;SDS011;42226;42.382;23.748;2022-11-15T07:11:02;69.78;;;10.93;;
56319;SDS011;42226;42.382;23.748;2022-11-15T07:13:31;54.65;;;10.60;;
56319;SDS011;42226;42.382;23.748;2022-11-15T07:16:03;41.33;;;11.18;;
56319;SDS011;42226;42.382;23.748;2022-11-15T07:18:36;80.82;;;11.70;;
56319;SDS011;42226;42.382;23.748;2022-11-15T07:21:06;84.57;;;12.25;;
56319;SDS011;42226;42.382;23.748;2022-11-15T07:23:36;37.50;;;11.60;;
56319;SDS011;42226;42.382;23.748;2022-11-15T07:26:05;37.70;;;11.07;;
56319;SDS011;42226;42.382;23.748;2022-11-15T07:28:34;80.20;;;12.23;;
56319;SDS011;42226;42.382;23.748;2022-11-15T07:31:03;28.63;;;10.75;;
56319;SDS011;42226;42.382;23.748;2022-11-15T07:33:31;51.45;;;10.70;;
56319;SDS011;42226;42.382;23.748;2022-11-15T07:35:59;46.05;;;9.85;;
56319;SDS011;42226;42.382;23.748;2022-11-15T07:38:27;93.35;;;11.45;;
56319;SDS011;42226;42.382;23.748;2022-11-15T07:40:56;52.75;;;11.05;;
56319;SDS011;42226;42.382;23.748;2022-11-15T07:43:27;87.18;;;11.15;;
56319;SDS011;42226;42.382;23.748;2022-11-15T07:45:55;53.65;;;11.18;;
56319;SDS011;42226;42.382;23.748;2022-11-15T07:48:22;80.65;;;12.27;;
56319;SDS011;42226;42.382;23.748;2022-11-15T07:50:50;42.67;;;10.57;;
56319;SDS011;42226;42.382;23.748;2022-11-15T07:53:17;29.95;;;10.23;;
56319;SDS011;42226;42.382;23.748;2022-11-15T07:55:44;97.55;;;13.05;;
56319;SDS011;42226;42.382;23.748;2022-11-15T07:58:11;177.68;;;16.95;;
56319;SDS011;42226;42.382;23.748;2022-11-15T08:00:38;46.38;;;11.07;;
56319;SDS011;42226;42.382;23.748;2022-11-15T08:03:06;112.65;;;14.00;;
56319;SDS011;42226;42.382;23.748;2022-11-15T08:05:39;84.45;;;13.98;;
56319;SDS011;42226;42.382;23.748;2022-11-15T08:08:08;114.53;;;13.88;;
56319;SDS011;42226;42.382;23.748;2022-11-15T08:10:36;102.25;;;15.27;;
56319;SDS011;42226;42.382;23.748;2022-11-15T08:13:04;51.22;;;12.45;;
56319;SDS011;42226;42.382;23.748;2022-11-15T08:15:37;71.47;;;13.63;;
56319;SDS011;42226;42.382;23.748;2022-11-15T08:18:06;255.70;;;20.23;;
56319;SDS011;42226;42.382;23.748;2022-11-15T08:20:38;303.83;;;20.17;;
56319;SDS011;42226;42.382;23.748;2022-11-15T08:23:07;299.27;;;25.10;;
56319;SDS011;42226;42.382;23.748;2022-11-15T08:25:35;59.28;;;12.25;;
56319;SDS011;42226;42.382;23.748;2022-11-15T08:28:04;106.53;;;14.82;;
56319;SDS011;42226;42.382;23.748;2022-11-15T08:30:38;118.53;;;14.93;;
56319;SDS011;42226;42.382;23.748;2022-11-15T08:33:12;41.95;;;12.60;;
56319;SDS011;42226;42.382;23.748;2022-11-15T08:35:42;159.75;;;15.60;;
56319;SDS011;42226;42.382;23.748;2022-11-15T08:38:10;72.22;;;14.35;;
56319;SDS011;42226;42.382;23.748;2022-11-15T08:40:37;79.45;;;13.73;;
56319;SDS011;42226;42.382;23.748;2022-11-15T08:43:04;43.05;;;13.27;;
56319;SDS011;42226;42.382;23.748;2022-11-15T08:45:31;105.68;;;15.07;;
56319;SDS011;42226;42.382;23.748;2022-11-15T08:48:00;92.72;;;14.20;;
56319;SDS011;42226;42.382;23.748;2022-11-15T08:50:28;130.48;;;15.80;;
56319;SDS011;42226;42.382;23.748;2022-11-15T08:52:55;118.18;;;15.18;;
56319;SDS011;42226;42.382;23.748;2022-11-15T08:55:23;154.15;;;17.40;;
56319;SDS011;42226;42.382;23.748;2022-11-15T08:57:51;58.80;;;14.07;;
56319;SDS011;42226;42.382;23.748;2022-11-15T09:00:18;72.07;;;13.80;;
56319;SDS011;42226;42.382;23.748;2022-11-15T09:02:45;38.50;;;12.73;;
56319;SDS011;42226;42.382;23.748;2022-11-15T09:05:11;45.00;;;12.95;;
56319;SDS011;42226;42.382;23.748;2022-11-15T09:07:40;198.18;;;19.33;;
56319;SDS011;42226;42.382;23.748;2022-11-15T09:10:08;57.30;;;14.50;;
56319;SDS011;42226;42.382;23.748;2022-11-15T09:12:36;101.88;;;15.35;;
56319;SDS011;42226;42.382;23.748;2022-11-15T09:15:04;45.92;;;14.45;;
56319;SDS011;42226;42.382;23.748;2022-11-15T09:17:33;156.38;;;17.15;;
56319;SDS011;42226;42.382;23.748;2022-11-15T09:19:59;98.13;;;15.18;;
56319;SDS011;42226;42.382;23.748;2022-11-15T09:22:27;114.30;;;15.07;;
56319;SDS011;42226;42.382;23.748;2022-11-15T09:24:55;106.53;;;15.05;;
56319;SDS011;42226;42.382;23.748;2022-11-15T09:27:22;133.68;;;15.43;;
56319;SDS011;42226;42.382;23.748;2022-11-15T09:29:53;138.43;;;15.00;;
56319;SDS011;42226;42.382;23.748;2022-11-15T09:32:20;115.65;;;14.75;;
56319;SDS011;42226;42.382;23.748;2022-11-15T09:34:50;82.93;;;14.55;;
56319;SDS011;42226;42.382;23.748;2022-11-15T09:37:19;27.45;;;12.65;;
56319;SDS011;42226;42.382;23.748;2022-11-15T09:39:46;36.40;;;12.50;;
56319;SDS011;42226;42.382;23.748;2022-11-15T09:42:22;96.07;;;17.15;;
56319;SDS011;42226;42.382;23.748;2022-11-15T09:45:15;27.60;;;11.70;;
56319;SDS011;42226;42.382;23.748;2022-11-15T09:48:03;26.38;;;13.43;;
56319;SDS011;42226;42.382;23.748;2022-11-15T09:50:48;31.38;;;12.68;;
56319;SDS011;42226;42.382;23.748;2022-11-15T09:56:13;41.20;;;14.00;;
56319;SDS011;42226;42.382;23.748;2022-11-15T10:02:15;20.35;;;13.15;;
56319;SDS011;42226;42.382;23.748;2022-11-15T10:04:54;23.45;;;13.23;;
56319;SDS011;42226;42.382;23.748;2022-11-15T10:07:31;44.60;;;15.27;;
56319;SDS011;42226;42.382;23.748;2022-11-15T10:10:29;23.15;;;13.13;;
56319;SDS011;42226;42.382;23.748;2022-11-15T10:13:04;22.45;;;13.02;;
56319;SDS011;42226;42.382;23.748;2022-11-15T10:15:39;22.00;;;12.55;;
56319;SDS011;42226;42.382;23.748;2022-11-15T10:18:16;20.77;;;13.48;;
56319;SDS011;42226;42.382;23.748;2022-11-15T10:20:59;25.98;;;14.27;;
56319;SDS011;42226;42.382;23.748;2022-11-15T10:23:41;21.25;;;13.45;;
56319;SDS011;42226;42.382;23.748;2022-11-15T10:26:11;19.33;;;13.40;;
56319;SDS011;42226;42.382;23.748;2022-11-15T10:28:42;20.25;;;14.05;;
56319;SDS011;42226;42.382;23.748;2022-11-15T10:31:23;25.20;;;14.40;;
56319;SDS011;42226;42.382;23.748;2022-11-15T10:34:12;18.02;;;13.32;;
56319;SDS011;42226;42.382;23.748;2022-11-15T10:36:46;17.98;;;13.07;;
56319;SDS011;42226;42.382;23.748;2022-11-15T10:39:25;18.52;;;13.15;;
56319;SDS011;42226;42.382;23.748;2022-11-15T10:41:52;20.38;;;14.10;;
56319;SDS011;42226;42.382;23.748;2022-11-15T10:49:23;16.40;;;13.02;;
56319;SDS011;42226;42.382;23.748;2022-11-15T10:51:55;16.42;;;12.52;;
56319;SDS011;42226;42.382;23.748;2022-11-15T10:54:25;15.77;;;12.13;;
56319;SDS011;42226;42.382;23.748;2022-11-15T10:57:48;16.70;;;13.23;;
56319;SDS011;42226;42.382;23.748;2022-11-15T10:59:56;17.30;;;14.05;;
56319;SDS011;42226;42.382;23.748;2022-11-15T11:02:37;17.50;;;13.88;;
56319;SDS011;42226;42.382;23.748;2022-11-15T11:08:04;21.02;;;15.55;;
56319;SDS011;42226;42.382;23.748;2022-11-15T11:10:56;15.50;;;13.02;;
56319;SDS011;42226;42.382;23.748;2022-11-15T11:13:31;16.17;;;12.95;;
56319;SDS011;42226;42.382;23.748;2022-11-15T11:16:26;17.35;;;13.23;;
56319;SDS011;42226;42.382;23.748;2022-11-15T11:19:25;17.48;;;13.38;;
56319;SDS011;42226;42.382;23.748;2022-11-15T11:22:14;14.52;;;11.75;;
56319;SDS011;42226;42.382;23.748;2022-11-15T11:27:43;15.88;;;12.77;;
56319;SDS011;42226;42.382;23.748;2022-11-15T11:36:21;18.10;;;15.02;;
56319;SDS011;42226;42.382;23.748;2022-11-15T11:47:24;19.02;;;14.93;;
56319;SDS011;42226;42.382;23.748;2022-11-15T11:50:10;18.23;;;14.50;;
56319;SDS011;42226;42.382;23.748;2022-11-15T11:52:59;17.15;;;15.15;;
56319;SDS011;42226;42.382;23.748;2022-11-15T11:55:45;21.00;;;17.15;;
56319;SDS011;42226;42.382;23.748;2022-11-15T11:58:41;19.90;;;16.50;;
56319;SDS011;42226;42.382;23.748;2022-11-15T12:04:01;19.02;;;16.55;;
56319;SDS011;42226;42.382;23.748;2022-11-15T12:07:23;19.13;;;16.60;;
56319;SDS011;42226;42.382;23.748;2022-11-15T12:10:01;19.40;;;16.65;;
56319;SDS011;42226;42.382;23.748;2022-11-15T12:12:53;18.95;;;17.02;;
56319;SDS011;42226;42.382;23.748;2022-11-15T12:15:36;21.40;;;17.40;;
56319;SDS011;42226;42.382;23.748;2022-11-15T12:18:16;18.80;;;16.60;;
56319;SDS011;42226;42.382;23.748;2022-11-15T12:23:50;19.70;;;16.33;;
56319;SDS011;42226;42.382;23.748;2022-11-15T12:26:26;21.13;;;17.45;;
56319;SDS011;42226;42.382;23.748;2022-11-15T12:29:10;18.92;;;16.02;;
56319;SDS011;42226;42.382;23.748;2022-11-15T12:31:50;20.17;;;17.58;;
56319;SDS011;42226;42.382;23.748;2022-11-15T12:36:49;18.73;;;16.60;;
56319;SDS011;42226;42.382;23.748;2022-11-15T12:39:17;17.98;;;15.80;;
56319;SDS011;42226;42.382;23.748;2022-11-15T12:52:06;20.63;;;17.95;;
56319;SDS011;42226;42.382;23.748;2022-11-15T12:59:53;18.73;;;16.73;;
56319;SDS011;42226;42.382;23.748;2022-11-15T13:02:26;20.15;;;18.15;;
56319;SDS011;42226;42.382;23.748;2022-11-15T13:12:59;20.17;;;18.17;;
56319;SDS011;42226;42.382;23.748;2022-11-15T13:20:59;20.17;;;18.17;;
56319;SDS011;42226;42.382;23.748;2022-11-15T13:23:51;21.08;;;17.67;;
56319;SDS011;42226;42.382;23.748;2022-11-15T13:26:19;20.48;;;17.42;;
56319;SDS011;42226;42.382;23.748;2022-11-15T13:28:49;20.23;;;17.60;;
56319;SDS011;42226;42.382;23.748;2022-11-15T13:31:24;20.55;;;18.52;;
56319;SDS011;42226;42.382;23.748;2022-11-15T13:34:14;20.98;;;17.65;;
56319;SDS011;42226;42.382;23.748;2022-11-15T13:36:56;22.45;;;18.50;;
56319;SDS011;42226;42.382;23.748;2022-11-15T13:39:25;21.42;;;18.35;;
56319;SDS011;42226;42.382;23.748;2022-11-15T13:42:02;20.30;;;17.05;;
56319;SDS011;42226;42.382;23.748;2022-11-15T13:44:30;22.60;;;20.38;;
56319;SDS011;42226;42.382;23.748;2022-11-15T13:47:07;22.13;;;17.65;;
56319;SDS011;42226;42.382;23.748;2022-11-15T13:49:40;21.13;;;17.85;;
56319;SDS011;42226;42.382;23.748;2022-11-15T13:52:10;20.15;;;17.95;;
56319;SDS011;42226;42.382;23.748;2022-11-15T13:57:47;19.83;;;17.73;;
56319;SDS011;42226;42.382;23.748;2022-11-15T14:03:04;20.60;;;18.23;;
56319;SDS011;42226;42.382;23.748;2022-11-15T14:06:08;22.20;;;18.23;;
56319;SDS011;42226;42.382;23.748;2022-11-15T14:11:36;21.90;;;17.75;;
56319;SDS011;42226;42.382;23.748;2022-11-15T14:14:25;20.10;;;16.98;;
56319;SDS011;42226;42.382;23.748;2022-11-15T14:16:56;22.38;;;18.02;;
56319;SDS011;42226;42.382;23.748;2022-11-15T14:30:52;23.08;;;18.10;;
56319;SDS011;42226;42.382;23.748;2022-11-15T14:35:53;22.90;;;19.10;;
56319;SDS011;42226;42.382;23.748;2022-11-15T14:38:23;22.30;;;18.88;;
56319;SDS011;42226;42.382;23.748;2022-11-15T14:40:51;24.75;;;19.33;;
56319;SDS011;42226;42.382;23.748;2022-11-15T14:43:20;22.95;;;18.33;;
56319;SDS011;42226;42.382;23.748;2022-11-15T14:45:48;24.00;;;18.58;;
56319;SDS011;42226;42.382;23.748;2022-11-15T14:48:15;24.17;;;18.98;;
56319;SDS011;42226;42.382;23.748;2022-11-15T14:50:43;21.88;;;18.77;;
56319;SDS011;42226;42.382;23.748;2022-11-15T14:53:19;23.50;;;19.92;;
56319;SDS011;42226;42.382;23.748;2022-11-15T14:55:47;27.05;;;19.70;;
56319;SDS011;42226;42.382;23.748;2022-11-15T14:58:15;25.95;;;19.50;;
56319;SDS011;42226;42.382;23.748;2022-11-15T15:00:43;26.85;;;21.13;;
56319;SDS011;42226;42.382;23.748;2022-11-15T15:03:11;26.02;;;20.00;;
56319;SDS011;42226;42.382;23.748;2022-11-15T15:05:41;27.98;;;21.52;;
56319;SDS011;42226;42.382;23.748;2022-11-15T15:08:10;26.35;;;20.55;;
56319;SDS011;42226;42.382;23.748;2022-11-15T15:10:37;27.05;;;20.25;;
56319;SDS011;42226;42.382;23.748;2022-11-15T15:13:17;29.05;;;22.48;;
56319;SDS011;42226;42.382;23.748;2022-11-15T15:15:47;28.88;;;21.63;;
56319;SDS011;42226;42.382;23.748;2022-11-15T15:18:15;28.83;;;21.52;;
56319;SDS011;42226;42.382;23.748;2022-11-15T15:20:43;28.02;;;21.15;;
56319;SDS011;42226;42.382;23.748;2022-11-15T15:23:17;27.92;;;21.85;;
56319;SDS011;42226;42.382;23.748;2022-11-15T15:25:45;29.58;;;21.30;;
56319;SDS011;42226;42.382;23.748;2022-11-15T15:28:18;27.77;;;21.33;;
56319;SDS011;42226;42.382;23.748;2022-11-15T15:30:45;29.73;;;21.15;;
56319;SDS011;42226;42.382;23.748;2022-11-15T15:33:12;31.25;;;22.75;;
56319;SDS011;42226;42.382;23.748;2022-11-15T15:35:39;32.00;;;22.33;;
56319;SDS011;42226;42.382;23.748;2022-11-15T15:38:08;31.60;;;23.48;;
56319;SDS011;42226;42.382;23.748;2022-11-15T15:40:38;31.42;;;23.23;;
56319;SDS011;42226;42.382;23.748;2022-11-15T15:43:06;34.75;;;23.75;;
56319;SDS011;42226;42.382;23.748;2022-11-15T15:45:34;33.55;;;23.20;;
56319;SDS011;42226;42.382;23.748;2022-11-15T15:48:07;34.50;;;24.60;;
56319;SDS011;42226;42.382;23.748;2022-11-15T15:50:39;37.30;;;25.90;;
56319;SDS011;42226;42.382;23.748;2022-11-15T15:53:09;35.08;;;24.08;;
56319;SDS011;42226;42.382;23.748;2022-11-15T15:55:37;37.33;;;24.63;;
56319;SDS011;42226;42.382;23.748;2022-11-15T15:58:04;33.30;;;23.35;;
56319;SDS011;42226;42.382;23.748;2022-11-15T16:00:34;37.80;;;24.83;;
56319;SDS011;42226;42.382;23.748;2022-11-15T16:03:01;40.35;;;26.63;;
56319;SDS011;42226;42.382;23.748;2022-11-15T16:05:29;36.30;;;24.85;;
56319;SDS011;42226;42.382;23.748;2022-11-15T16:07:55;39.95;;;26.90;;
56319;SDS011;42226;42.382;23.748;2022-11-15T16:10:23;33.88;;;24.42;;
56319;SDS011;42226;42.382;23.748;2022-11-15T16:12:54;37.90;;;25.33;;
56319;SDS011;42226;42.382;23.748;2022-11-15T16:15:25;37.78;;;24.98;;
56319;SDS011;42226;42.382;23.748;2022-11-15T16:17:57;38.22;;;25.20;;
56319;SDS011;42226;42.382;23.748;2022-11-15T16:20:37;42.40;;;27.63;;
56319;SDS011;42226;42.382;23.748;2022-11-15T16:23:11;36.28;;;26.00;;
56319;SDS011;42226;42.382;23.748;2022-11-15T16:25:41;38.40;;;26.85;;
56319;SDS011;42226;42.382;23.748;2022-11-15T16:28:18;44.15;;;28.23;;
56319;SDS011;42226;42.382;23.748;2022-11-15T16:30:49;39.80;;;26.75;;
56319;SDS011;42226;42.382;23.748;2022-11-15T16:33:26;40.90;;;27.63;;
56319;SDS011;42226;42.382;23.748;2022-11-15T16:35:52;40.15;;;26.42;;
56319;SDS011;42226;42.382;23.748;2022-11-15T16:38:20;41.00;;;27.45;;
56319;SDS011;42226;42.382;23.748;2022-11-15T16:40:46;43.20;;;28.15;;